sensor_id;sensor_type;location;lat;lon;timestamp;temperature;humidity
7427;DHT22;3755;59.316;18.092;2023-05-10T00:01:58;9.00;99.90
7427;DHT22;3755;59.316;18.092;2023-05-10T00:04:26;8.90;99.90
7427;DHT22;3755;59.316;18.092;2023-05-10T00:06:55;8.90;99.90
7427;DHT22;3755;59.316;18.092;2023-05-10T00:09:23;8.90;99.90
7427;DHT22;3755;59.316;18.092;2023-05-10T00:11:51;8.90;99.90
7427;DHT22;3755;59.316;18.092;2023-05-10T00:14:19;8.80;99.90
7427;DHT22;3755;59.316;18.092;2023-05-10T00:16:46;8.80;99.90
7427;DHT22;3755;59.316;18.092;2023-05-10T00:19:14;8.80;99.90
7427;DHT22;3755;59.316;18.092;2023-05-10T00:21:41;8.70;99.90
7427;DHT22;3755;59.316;18.092;2023-05-10T00:24:11;8.70;99.90
7427;DHT22;3755;59.316;18.092;2023-05-10T00:26:38;8.70;99.90
7427;DHT22;3755;59.316;18.092;2023-05-10T00:29:06;8.60;99.90
7427;DHT22;3755;59.316;18.092;2023-05-10T00:31:34;8.60;99.90
7427;DHT22;3755;59.316;18.092;2023-05-10T00:34:01;8.40;99.90
7427;DHT22;3755;59.316;18.092;2023-05-10T00:36:29;8.60;99.90
7427;DHT22;3755;59.316;18.092;2023-05-10T00:38:56;8.50;99.90
7427;DHT22;3755;59.316;18.092;2023-05-10T00:41:25;8.50;99.90
7427;DHT22;3755;59.316;18.092;2023-05-10T00:43:52;8.50;99.90
7427;DHT22;3755;59.316;18.092;2023-05-10T00:46:20;8.50;99.90
7427;DHT22;3755;59.316;18.092;2023-05-10T00:48:48;8.40;99.90
7427;DHT22;3755;59.316;18.092;2023-05-10T00:51:16;8.40;99.90
7427;DHT22;3755;59.316;18.092;2023-05-10T00:53:45;8.40;99.90
7427;DHT22;3755;59.316;18.092;2023-05-10T00:56:13;8.40;99.90
7427;DHT22;3755;59.316;18.092;2023-05-10T00:58:43;8.40;99.90
7427;DHT22;3755;59.316;18.092;2023-05-10T01:01:10;8.40;99.90
7427;DHT22;3755;59.316;18.092;2023-05-10T01:03:39;8.30;99.90
7427;DHT22;3755;59.316;18.092;2023-05-10T01:06:08;8.30;99.90
7427;DHT22;3755;59.316;18.092;2023-05-10T01:08:35;8.20;99.90
7427;DHT22;3755;59.316;18.092;2023-05-10T01:11:03;8.20;99.90
7427;DHT22;3755;59.316;18.092;2023-05-10T01:13:33;8.20;99.90
7427;DHT22;3755;59.316;18.092;2023-05-10T01:16:04;8.20;99.90
7427;DHT22;3755;59.316;18.092;2023-05-10T01:18:33;8.20;99.90
7427;DHT22;3755;59.316;18.092;2023-05-10T01:21:14;8.20;99.90
7427;DHT22;3755;59.316;18.092;2023-05-10T01:24:12;8.10;99.90
7427;DHT22;3755;59.316;18.092;2023-05-10T01:27:14;8.10;99.90
7427;DHT22;3755;59.316;18.092;2023-05-10T01:30:08;8.10;99.90
7427;DHT22;3755;59.316;18.092;2023-05-10T01:32:46;8.00;99.90
7427;DHT22;3755;59.316;18.092;2023-05-10T01:35:19;8.00;99.90
7427;DHT22;3755;59.316;18.092;2023-05-10T01:37:52;8.00;99.90
7427;DHT22;3755;59.316;18.092;2023-05-10T01:40:26;8.00;99.90
7427;DHT22;3755;59.316;18.092;2023-05-10T01:43:15;7.90;99.90
7427;DHT22;3755;59.316;18.092;2023-05-10T01:45:50;7.90;99.90
7427;DHT22;3755;59.316;18.092;2023-05-10T01:48:20;7.90;99.90
7427;DHT22;3755;59.316;18.092;2023-05-10T01:50:48;7.90;99.90
7427;DHT22;3755;59.316;18.092;2023-05-10T01:53:19;7.90;99.90
7427;DHT22;3755;59.316;18.092;2023-05-10T01:55:49;7.80;99.90
7427;DHT22;3755;59.316;18.092;2023-05-10T01:58:21;7.80;99.90
7427;DHT22;3755;59.316;18.092;2023-05-10T02:00:50;7.80;99.90
7427;DHT22;3755;59.316;18.092;2023-05-10T02:03:22;7.80;99.90
7427;DHT22;3755;59.316;18.092;2023-05-10T02:05:50;7.70;99.90
7427;DHT22;3755;59.316;18.092;2023-05-10T02:08:19;7.70;99.90
7427;DHT22;3755;59.316;18.092;2023-05-10T02:10:51;7.70;99.90
7427;DHT22;3755;59.316;18.092;2023-05-10T02:13:19;7.70;99.90
7427;DHT22;3755;59.316;18.092;2023-05-10T02:15:48;7.60;99.90
7427;DHT22;3755;59.316;18.092;2023-05-10T02:18:17;7.60;99.90
7427;DHT22;3755;59.316;18.092;2023-05-10T02:20:47;7.70;99.90
7427;DHT22;3755;59.316;18.092;2023-05-10T02:23:16;7.60;99.90
7427;DHT22;3755;59.316;18.092;2023-05-10T02:25:44;7.60;99.90
7427;DHT22;3755;59.316;18.092;2023-05-10T02:28:13;7.50;99.90
7427;DHT22;3755;59.316;18.092;2023-05-10T02:30:41;7.50;99.90
7427;DHT22;3755;59.316;18.092;2023-05-10T02:33:10;7.50;99.90
7427;DHT22;3755;59.316;18.092;2023-05-10T02:35:38;7.50;99.90
7427;DHT22;3755;59.316;18.092;2023-05-10T02:38:08;7.50;99.90
7427;DHT22;3755;59.316;18.092;2023-05-10T02:40:38;7.50;99.90
7427;DHT22;3755;59.316;18.092;2023-05-10T02:43:06;7.50;99.90
7427;DHT22;3755;59.316;18.092;2023-05-10T02:45:36;7.50;99.90
7427;DHT22;3755;59.316;18.092;2023-05-10T02:48:05;7.60;99.90
7427;DHT22;3755;59.316;18.092;2023-05-10T02:50:34;7.60;99.90
7427;DHT22;3755;59.316;18.092;2023-05-10T02:53:09;7.60;99.90
7427;DHT22;3755;59.316;18.092;2023-05-10T02:55:40;7.50;99.90
7427;DHT22;3755;59.316;18.092;2023-05-10T02:58:07;7.50;99.90
7427;DHT22;3755;59.316;18.092;2023-05-10T03:00:35;7.50;99.90
7427;DHT22;3755;59.316;18.092;2023-05-10T03:03:02;7.50;99.90
7427;DHT22;3755;59.316;18.092;2023-05-10T03:05:29;7.40;99.90
7427;DHT22;3755;59.316;18.092;2023-05-10T03:07:57;7.50;99.90
7427;DHT22;3755;59.316;18.092;2023-05-10T03:10:28;7.50;99.90
7427;DHT22;3755;59.316;18.092;2023-05-10T03:13:07;7.60;99.90
7427;DHT22;3755;59.316;18.092;2023-05-10T03:15:42;7.70;99.90
7427;DHT22;3755;59.316;18.092;2023-05-10T03:18:17;7.70;99.90
7427;DHT22;3755;59.316;18.092;2023-05-10T03:20:48;7.90;99.90
7427;DHT22;3755;59.316;18.092;2023-05-10T03:23:22;8.00;99.90
7427;DHT22;3755;59.316;18.092;2023-05-10T03:25:52;8.20;99.90
7427;DHT22;3755;59.316;18.092;2023-05-10T03:28:21;8.30;99.90
7427;DHT22;3755;59.316;18.092;2023-05-10T03:30:49;8.60;99.90
7427;DHT22;3755;59.316;18.092;2023-05-10T03:33:19;8.80;99.90
7427;DHT22;3755;59.316;18.092;2023-05-10T03:35:46;9.00;99.90
7427;DHT22;3755;59.316;18.092;2023-05-10T03:38:13;9.20;99.90
7427;DHT22;3755;59.316;18.092;2023-05-10T03:40:41;9.40;99.90
7427;DHT22;3755;59.316;18.092;2023-05-10T03:43:09;9.70;99.90
7427;DHT22;3755;59.316;18.092;2023-05-10T03:45:37;10.20;99.90
7427;DHT22;3755;59.316;18.092;2023-05-10T03:48:04;10.90;99.90
7427;DHT22;3755;59.316;18.092;2023-05-10T03:50:32;11.40;99.90
7427;DHT22;3755;59.316;18.092;2023-05-10T03:52:59;11.90;99.20
7427;DHT22;3755;59.316;18.092;2023-05-10T03:55:27;12.20;98.70
7427;DHT22;3755;59.316;18.092;2023-05-10T03:57:55;12.30;97.80
7427;DHT22;3755;59.316;18.092;2023-05-10T04:00:24;12.00;98.40
7427;DHT22;3755;59.316;18.092;2023-05-10T04:02:51;12.00;98.80
7427;DHT22;3755;59.316;18.092;2023-05-10T04:05:18;12.30;98.20
7427;DHT22;3755;59.316;18.092;2023-05-10T04:07:46;12.60;97.30
7427;DHT22;3755;59.316;18.092;2023-05-10T04:10:15;13.10;96.10
7427;DHT22;3755;59.316;18.092;2023-05-10T04:12:43;13.10;96.00
7427;DHT22;3755;59.316;18.092;2023-05-10T04:15:10;13.00;95.80
7427;DHT22;3755;59.316;18.092;2023-05-10T04:17:39;13.40;95.70
7427;DHT22;3755;59.316;18.092;2023-05-10T04:20:08;13.40;95.00
7427;DHT22;3755;59.316;18.092;2023-05-10T04:22:35;13.40;94.80
7427;DHT22;3755;59.316;18.092;2023-05-10T04:25:03;13.90;94.70
7427;DHT22;3755;59.316;18.092;2023-05-10T04:27:30;13.30;94.80
7427;DHT22;3755;59.316;18.092;2023-05-10T04:29:58;13.90;94.40
7427;DHT22;3755;59.316;18.092;2023-05-10T04:32:25;14.40;93.60
7427;DHT22;3755;59.316;18.092;2023-05-10T04:34:53;14.70;93.00
7427;DHT22;3755;59.316;18.092;2023-05-10T04:37:21;14.70;92.50
7427;DHT22;3755;59.316;18.092;2023-05-10T04:39:48;14.80;92.30
7427;DHT22;3755;59.316;18.092;2023-05-10T04:42:16;14.50;92.90
7427;DHT22;3755;59.316;18.092;2023-05-10T04:44:43;14.80;92.40
7427;DHT22;3755;59.316;18.092;2023-05-10T04:47:10;14.60;92.60
7427;DHT22;3755;59.316;18.092;2023-05-10T04:49:39;15.10;92.60
7427;DHT22;3755;59.316;18.092;2023-05-10T04:52:07;15.10;91.80
7427;DHT22;3755;59.316;18.092;2023-05-10T04:54:34;15.30;91.90
7427;DHT22;3755;59.316;18.092;2023-05-10T04:57:02;15.50;91.60
7427;DHT22;3755;59.316;18.092;2023-05-10T04:59:30;15.30;91.00
7427;DHT22;3755;59.316;18.092;2023-05-10T05:01:57;15.00;91.80
7427;DHT22;3755;59.316;18.092;2023-05-10T05:04:24;15.00;91.40
7427;DHT22;3755;59.316;18.092;2023-05-10T05:06:51;14.60;91.90
7427;DHT22;3755;59.316;18.092;2023-05-10T05:09:20;14.00;92.30
7427;DHT22;3755;59.316;18.092;2023-05-10T05:11:47;13.30;93.20
7427;DHT22;3755;59.316;18.092;2023-05-10T05:14:15;12.90;94.00
7427;DHT22;3755;59.316;18.092;2023-05-10T05:16:42;12.60;94.40
7427;DHT22;3755;59.316;18.092;2023-05-10T05:19:09;12.50;94.90
7427;DHT22;3755;59.316;18.092;2023-05-10T05:21:37;12.40;95.20
7427;DHT22;3755;59.316;18.092;2023-05-10T05:24:05;12.30;95.40
7427;DHT22;3755;59.316;18.092;2023-05-10T05:26:34;12.10;95.70
7427;DHT22;3755;59.316;18.092;2023-05-10T05:29:02;12.00;95.90
7427;DHT22;3755;59.316;18.092;2023-05-10T05:31:29;12.00;96.10
7427;DHT22;3755;59.316;18.092;2023-05-10T05:33:57;12.00;96.10
7427;DHT22;3755;59.316;18.092;2023-05-10T05:36:24;12.00;96.30
7427;DHT22;3755;59.316;18.092;2023-05-10T05:38:51;12.10;96.40
7427;DHT22;3755;59.316;18.092;2023-05-10T05:41:19;12.10;96.30
7427;DHT22;3755;59.316;18.092;2023-05-10T05:43:49;12.10;96.30
7427;DHT22;3755;59.316;18.092;2023-05-10T05:46:16;12.20;96.10
7427;DHT22;3755;59.316;18.092;2023-05-10T05:48:44;12.20;96.10
7427;DHT22;3755;59.316;18.092;2023-05-10T05:51:11;12.30;96.10
7427;DHT22;3755;59.316;18.092;2023-05-10T05:53:39;12.30;95.90
7427;DHT22;3755;59.316;18.092;2023-05-10T05:56:06;12.40;96.00
7427;DHT22;3755;59.316;18.092;2023-05-10T05:58:35;12.60;95.80
7427;DHT22;3755;59.316;18.092;2023-05-10T06:01:03;12.70;95.50
7427;DHT22;3755;59.316;18.092;2023-05-10T06:03:31;12.80;95.20
7427;DHT22;3755;59.316;18.092;2023-05-10T06:05:58;12.90;94.80
7427;DHT22;3755;59.316;18.092;2023-05-10T06:08:25;13.00;94.80
7427;DHT22;3755;59.316;18.092;2023-05-10T06:10:53;13.10;94.40
7427;DHT22;3755;59.316;18.092;2023-05-10T06:13:20;13.10;94.10
7427;DHT22;3755;59.316;18.092;2023-05-10T06:15:48;13.20;94.10
7427;DHT22;3755;59.316;18.092;2023-05-10T06:18:17;13.30;93.90
7427;DHT22;3755;59.316;18.092;2023-05-10T06:20:44;13.40;93.90
7427;DHT22;3755;59.316;18.092;2023-05-10T06:23:11;13.50;93.80
7427;DHT22;3755;59.316;18.092;2023-05-10T06:25:39;13.50;93.40
7427;DHT22;3755;59.316;18.092;2023-05-10T06:28:06;13.60;93.30
7427;DHT22;3755;59.316;18.092;2023-05-10T06:30:35;13.60;93.40
7427;DHT22;3755;59.316;18.092;2023-05-10T06:33:03;13.70;93.60
7427;DHT22;3755;59.316;18.092;2023-05-10T06:35:33;13.80;93.40
7427;DHT22;3755;59.316;18.092;2023-05-10T06:38:00;13.80;93.20
7427;DHT22;3755;59.316;18.092;2023-05-10T06:40:28;14.00;93.30
7427;DHT22;3755;59.316;18.092;2023-05-10T06:42:55;14.00;92.80
7427;DHT22;3755;59.316;18.092;2023-05-10T06:45:23;14.10;93.00
7427;DHT22;3755;59.316;18.092;2023-05-10T06:47:50;14.20;92.80
7427;DHT22;3755;59.316;18.092;2023-05-10T06:50:18;14.40;92.60
7427;DHT22;3755;59.316;18.092;2023-05-10T06:52:47;14.40;92.30
7427;DHT22;3755;59.316;18.092;2023-05-10T06:55:15;14.50;92.10
7427;DHT22;3755;59.316;18.092;2023-05-10T06:57:42;14.40;92.00
7427;DHT22;3755;59.316;18.092;2023-05-10T07:00:10;14.40;91.80
7427;DHT22;3755;59.316;18.092;2023-05-10T07:02:38;14.50;92.00
7427;DHT22;3755;59.316;18.092;2023-05-10T07:05:06;14.60;91.90
7427;DHT22;3755;59.316;18.092;2023-05-10T07:07:34;14.70;91.60
7427;DHT22;3755;59.316;18.092;2023-05-10T07:10:03;14.80;91.90
7427;DHT22;3755;59.316;18.092;2023-05-10T07:12:31;14.80;91.10
7427;DHT22;3755;59.316;18.092;2023-05-10T07:14:58;14.90;91.10
7427;DHT22;3755;59.316;18.092;2023-05-10T07:17:26;14.90;91.10
7427;DHT22;3755;59.316;18.092;2023-05-10T07:19:53;15.00;90.80
7427;DHT22;3755;59.316;18.092;2023-05-10T07:22:20;15.10;90.60
7427;DHT22;3755;59.316;18.092;2023-05-10T07:24:48;15.20;90.60
7427;DHT22;3755;59.316;18.092;2023-05-10T07:27:17;15.10;90.50
7427;DHT22;3755;59.316;18.092;2023-05-10T07:29:44;15.20;90.30
7427;DHT22;3755;59.316;18.092;2023-05-10T07:32:11;15.40;90.10
7427;DHT22;3755;59.316;18.092;2023-05-10T07:34:39;15.50;89.50
7427;DHT22;3755;59.316;18.092;2023-05-10T07:37:07;15.70;88.50
7427;DHT22;3755;59.316;18.092;2023-05-10T07:39:37;15.80;87.60
7427;DHT22;3755;59.316;18.092;2023-05-10T07:42:05;15.90;86.70
7427;DHT22;3755;59.316;18.092;2023-05-10T07:44:34;16.00;87.30
7427;DHT22;3755;59.316;18.092;2023-05-10T07:47:02;16.30;88.10
7427;DHT22;3755;59.316;18.092;2023-05-10T07:49:29;16.10;87.70
7427;DHT22;3755;59.316;18.092;2023-05-10T07:51:57;16.20;87.60
7427;DHT22;3755;59.316;18.092;2023-05-10T07:54:24;16.40;85.80
7427;DHT22;3755;59.316;18.092;2023-05-10T07:56:52;16.50;84.80
7427;DHT22;3755;59.316;18.092;2023-05-10T07:59:19;16.50;84.20
7427;DHT22;3755;59.316;18.092;2023-05-10T08:01:49;16.60;83.70
7427;DHT22;3755;59.316;18.092;2023-05-10T08:04:16;16.70;82.00
7427;DHT22;3755;59.316;18.092;2023-05-10T08:06:44;16.80;81.70
7427;DHT22;3755;59.316;18.092;2023-05-10T08:09:11;16.80;80.40
7427;DHT22;3755;59.316;18.092;2023-05-10T08:11:38;16.80;80.00
7427;DHT22;3755;59.316;18.092;2023-05-10T08:14:06;16.90;79.30
7427;DHT22;3755;59.316;18.092;2023-05-10T08:16:33;16.90;79.50
7427;DHT22;3755;59.316;18.092;2023-05-10T08:19:02;16.90;78.90
7427;DHT22;3755;59.316;18.092;2023-05-10T08:21:30;16.90;79.10
7427;DHT22;3755;59.316;18.092;2023-05-10T08:23:57;17.00;78.30
7427;DHT22;3755;59.316;18.092;2023-05-10T08:26:24;17.10;78.40
7427;DHT22;3755;59.316;18.092;2023-05-10T08:28:52;17.20;78.40
7427;DHT22;3755;59.316;18.092;2023-05-10T08:31:19;17.10;78.50
7427;DHT22;3755;59.316;18.092;2023-05-10T08:33:47;17.20;78.10
7427;DHT22;3755;59.316;18.092;2023-05-10T08:36:15;17.10;76.50
7427;DHT22;3755;59.316;18.092;2023-05-10T08:38:47;17.20;76.20
7427;DHT22;3755;59.316;18.092;2023-05-10T08:41:14;17.20;74.20
7427;DHT22;3755;59.316;18.092;2023-05-10T08:43:43;17.30;72.60
7427;DHT22;3755;59.316;18.092;2023-05-10T08:46:15;17.30;73.00
7427;DHT22;3755;59.316;18.092;2023-05-10T08:48:44;17.40;72.60
7427;DHT22;3755;59.316;18.092;2023-05-10T08:51:17;17.60;71.70
7427;DHT22;3755;59.316;18.092;2023-05-10T08:53:45;17.60;70.30
7427;DHT22;3755;59.316;18.092;2023-05-10T08:56:12;17.70;70.40
7427;DHT22;3755;59.316;18.092;2023-05-10T08:58:41;17.70;69.10
7427;DHT22;3755;59.316;18.092;2023-05-10T09:01:09;17.70;68.70
7427;DHT22;3755;59.316;18.092;2023-05-10T09:03:38;17.80;69.30
7427;DHT22;3755;59.316;18.092;2023-05-10T09:06:06;17.80;69.00
7427;DHT22;3755;59.316;18.092;2023-05-10T09:08:36;17.90;67.10
7427;DHT22;3755;59.316;18.092;2023-05-10T09:11:07;17.80;67.70
7427;DHT22;3755;59.316;18.092;2023-05-10T09:13:36;17.60;68.30
7427;DHT22;3755;59.316;18.092;2023-05-10T09:16:03;17.80;68.10
7427;DHT22;3755;59.316;18.092;2023-05-10T09:18:31;17.80;67.20
7427;DHT22;3755;59.316;18.092;2023-05-10T09:20:58;17.80;66.70
7427;DHT22;3755;59.316;18.092;2023-05-10T09:23:26;17.80;66.40
7427;DHT22;3755;59.316;18.092;2023-05-10T09:26:06;17.60;66.70
7427;DHT22;3755;59.316;18.092;2023-05-10T09:28:33;17.70;66.60
7427;DHT22;3755;59.316;18.092;2023-05-10T09:31:01;17.90;66.30
7427;DHT22;3755;59.316;18.092;2023-05-10T09:33:28;17.90;65.90
7427;DHT22;3755;59.316;18.092;2023-05-10T09:35:55;18.00;65.30
7427;DHT22;3755;59.316;18.092;2023-05-10T09:38:45;18.00;65.10
7427;DHT22;3755;59.316;18.092;2023-05-10T09:41:18;18.10;65.30
7427;DHT22;3755;59.316;18.092;2023-05-10T09:43:46;18.20;65.00
7427;DHT22;3755;59.316;18.092;2023-05-10T09:46:14;18.10;65.00
7427;DHT22;3755;59.316;18.092;2023-05-10T09:48:44;18.00;63.70
7427;DHT22;3755;59.316;18.092;2023-05-10T09:51:18;18.00;62.90
7427;DHT22;3755;59.316;18.092;2023-05-10T09:53:45;18.00;63.30
7427;DHT22;3755;59.316;18.092;2023-05-10T09:56:13;18.10;63.10
7427;DHT22;3755;59.316;18.092;2023-05-10T09:58:42;18.20;63.30
7427;DHT22;3755;59.316;18.092;2023-05-10T10:01:11;18.30;61.90
7427;DHT22;3755;59.316;18.092;2023-05-10T10:03:42;18.20;61.50
7427;DHT22;3755;59.316;18.092;2023-05-10T10:06:10;18.10;61.70
7427;DHT22;3755;59.316;18.092;2023-05-10T10:08:38;18.20;61.00
7427;DHT22;3755;59.316;18.092;2023-05-10T10:11:06;18.00;61.00
7427;DHT22;3755;59.316;18.092;2023-05-10T10:13:33;18.00;61.20
7427;DHT22;3755;59.316;18.092;2023-05-10T10:16:03;17.90;60.90
7427;DHT22;3755;59.316;18.092;2023-05-10T10:18:31;18.10;60.50
7427;DHT22;3755;59.316;18.092;2023-05-10T10:20:58;18.10;60.20
7427;DHT22;3755;59.316;18.092;2023-05-10T10:23:27;18.20;59.60
7427;DHT22;3755;59.316;18.092;2023-05-10T10:25:55;18.20;59.10
7427;DHT22;3755;59.316;18.092;2023-05-10T10:28:32;18.10;59.20
7427;DHT22;3755;59.316;18.092;2023-05-10T10:31:26;18.10;59.30
7427;DHT22;3755;59.316;18.092;2023-05-10T10:34:03;18.10;59.00
7427;DHT22;3755;59.316;18.092;2023-05-10T10:36:32;18.20;59.00
7427;DHT22;3755;59.316;18.092;2023-05-10T10:39:10;18.00;58.80
7427;DHT22;3755;59.316;18.092;2023-05-10T10:41:48;18.00;58.00
7427;DHT22;3755;59.316;18.092;2023-05-10T10:44:36;18.10;58.70
7427;DHT22;3755;59.316;18.092;2023-05-10T10:47:24;18.20;58.50
7427;DHT22;3755;59.316;18.092;2023-05-10T10:50:06;18.30;58.50
7427;DHT22;3755;59.316;18.092;2023-05-10T10:52:34;18.20;58.50
7427;DHT22;3755;59.316;18.092;2023-05-10T10:55:04;18.10;58.10
7427;DHT22;3755;59.316;18.092;2023-05-10T10:57:35;18.20;58.30
7427;DHT22;3755;59.316;18.092;2023-05-10T11:02:58;17.90;57.30
7427;DHT22;3755;59.316;18.092;2023-05-10T11:05:37;18.00;57.40
7427;DHT22;3755;59.316;18.092;2023-05-10T11:08:17;17.90;57.20
7427;DHT22;3755;59.316;18.092;2023-05-10T11:10:52;18.00;57.30
7427;DHT22;3755;59.316;18.092;2023-05-10T11:13:31;18.10;57.40
7427;DHT22;3755;59.316;18.092;2023-05-10T11:15:58;18.20;57.30
7427;DHT22;3755;59.316;18.092;2023-05-10T11:18:29;18.20;56.10
7427;DHT22;3755;59.316;18.092;2023-05-10T11:20:59;18.20;56.50
7427;DHT22;3755;59.316;18.092;2023-05-10T11:23:32;18.20;56.80
7427;DHT22;3755;59.316;18.092;2023-05-10T11:26:00;18.10;56.80
7427;DHT22;3755;59.316;18.092;2023-05-10T11:28:28;18.10;57.40
7427;DHT22;3755;59.316;18.092;2023-05-10T11:30:55;18.20;57.00
7427;DHT22;3755;59.316;18.092;2023-05-10T11:33:23;18.10;56.30
7427;DHT22;3755;59.316;18.092;2023-05-10T11:35:52;17.90;55.80
7427;DHT22;3755;59.316;18.092;2023-05-10T11:38:20;17.90;56.70
7427;DHT22;3755;59.316;18.092;2023-05-10T11:40:47;18.00;56.60
7427;DHT22;3755;59.316;18.092;2023-05-10T11:43:19;18.00;56.60
7427;DHT22;3755;59.316;18.092;2023-05-10T11:45:50;18.00;56.00
7427;DHT22;3755;59.316;18.092;2023-05-10T11:48:17;17.90;56.30
7427;DHT22;3755;59.316;18.092;2023-05-10T11:50:48;18.00;56.70
7427;DHT22;3755;59.316;18.092;2023-05-10T11:53:16;18.20;57.20
7427;DHT22;3755;59.316;18.092;2023-05-10T11:55:44;18.30;56.90
7427;DHT22;3755;59.316;18.092;2023-05-10T11:58:11;18.30;57.30
7427;DHT22;3755;59.316;18.092;2023-05-10T12:00:38;18.20;55.90
7427;DHT22;3755;59.316;18.092;2023-05-10T12:03:06;18.00;55.90
7427;DHT22;3755;59.316;18.092;2023-05-10T12:05:33;17.90;56.50
7427;DHT22;3755;59.316;18.092;2023-05-10T12:08:14;17.80;56.70
7427;DHT22;3755;59.316;18.092;2023-05-10T12:10:43;18.00;57.10
7427;DHT22;3755;59.316;18.092;2023-05-10T12:13:14;17.90;57.10
7427;DHT22;3755;59.316;18.092;2023-05-10T12:15:42;17.90;57.40
7427;DHT22;3755;59.316;18.092;2023-05-10T12:18:10;17.90;57.10
7427;DHT22;3755;59.316;18.092;2023-05-10T12:20:38;18.00;57.60
7427;DHT22;3755;59.316;18.092;2023-05-10T12:23:07;18.00;56.90
7427;DHT22;3755;59.316;18.092;2023-05-10T12:25:36;17.90;57.00
7427;DHT22;3755;59.316;18.092;2023-05-10T12:28:07;17.90;57.40
7427;DHT22;3755;59.316;18.092;2023-05-10T12:30:36;17.90;57.70
7427;DHT22;3755;59.316;18.092;2023-05-10T12:33:08;17.80;57.60
7427;DHT22;3755;59.316;18.092;2023-05-10T12:35:44;17.80;57.80
7427;DHT22;3755;59.316;18.092;2023-05-10T12:38:29;17.90;58.00
7427;DHT22;3755;59.316;18.092;2023-05-10T12:40:57;17.90;58.00
7427;DHT22;3755;59.316;18.092;2023-05-10T12:43:26;18.10;58.40
7427;DHT22;3755;59.316;18.092;2023-05-10T12:45:54;18.20;57.80
7427;DHT22;3755;59.316;18.092;2023-05-10T12:48:21;18.10;57.60
7427;DHT22;3755;59.316;18.092;2023-05-10T12:50:48;17.90;57.60
7427;DHT22;3755;59.316;18.092;2023-05-10T12:53:16;17.90;57.70
7427;DHT22;3755;59.316;18.092;2023-05-10T12:55:44;17.70;57.20
7427;DHT22;3755;59.316;18.092;2023-05-10T12:58:11;17.70;57.60
7427;DHT22;3755;59.316;18.092;2023-05-10T13:00:40;17.60;57.40
7427;DHT22;3755;59.316;18.092;2023-05-10T13:03:09;17.60;57.20
7427;DHT22;3755;59.316;18.092;2023-05-10T13:05:37;17.70;57.30
7427;DHT22;3755;59.316;18.092;2023-05-10T13:08:04;17.60;57.10
7427;DHT22;3755;59.316;18.092;2023-05-10T13:10:32;17.60;57.00
7427;DHT22;3755;59.316;18.092;2023-05-10T13:12:59;17.60;57.10
7427;DHT22;3755;59.316;18.092;2023-05-10T13:15:26;17.70;57.40
7427;DHT22;3755;59.316;18.092;2023-05-10T13:17:55;17.70;57.50
7427;DHT22;3755;59.316;18.092;2023-05-10T13:20:23;17.80;57.80
7427;DHT22;3755;59.316;18.092;2023-05-10T13:22:50;17.80;57.80
7427;DHT22;3755;59.316;18.092;2023-05-10T13:25:17;17.70;57.80
7427;DHT22;3755;59.316;18.092;2023-05-10T13:27:45;17.80;57.60
7427;DHT22;3755;59.316;18.092;2023-05-10T13:30:12;17.90;58.00
7427;DHT22;3755;59.316;18.092;2023-05-10T13:32:40;17.80;57.60
7427;DHT22;3755;59.316;18.092;2023-05-10T13:35:09;17.80;57.20
7427;DHT22;3755;59.316;18.092;2023-05-10T13:37:36;17.60;57.10
7427;DHT22;3755;59.316;18.092;2023-05-10T13:40:04;17.70;57.40
7427;DHT22;3755;59.316;18.092;2023-05-10T13:42:32;17.60;57.50
7427;DHT22;3755;59.316;18.092;2023-05-10T13:45:00;17.50;57.10
7427;DHT22;3755;59.316;18.092;2023-05-10T13:47:28;17.50;57.60
7427;DHT22;3755;59.316;18.092;2023-05-10T13:49:55;17.40;57.80
7427;DHT22;3755;59.316;18.092;2023-05-10T13:52:24;17.40;57.40
7427;DHT22;3755;59.316;18.092;2023-05-10T13:54:51;17.30;57.80
7427;DHT22;3755;59.316;18.092;2023-05-10T13:57:20;17.40;57.90
7427;DHT22;3755;59.316;18.092;2023-05-10T13:59:48;17.50;57.70
7427;DHT22;3755;59.316;18.092;2023-05-10T14:02:16;17.50;58.10
7427;DHT22;3755;59.316;18.092;2023-05-10T14:04:43;17.60;58.30
7427;DHT22;3755;59.316;18.092;2023-05-10T14:07:10;17.60;58.20
7427;DHT22;3755;59.316;18.092;2023-05-10T14:09:39;17.50;58.10
7427;DHT22;3755;59.316;18.092;2023-05-10T14:12:06;17.30;57.10
7427;DHT22;3755;59.316;18.092;2023-05-10T14:14:34;17.20;57.50
7427;DHT22;3755;59.316;18.092;2023-05-10T14:17:01;17.20;57.60
7427;DHT22;3755;59.316;18.092;2023-05-10T14:19:28;17.10;57.30
7427;DHT22;3755;59.316;18.092;2023-05-10T14:21:58;17.00;56.60
7427;DHT22;3755;59.316;18.092;2023-05-10T14:24:25;17.10;56.90
7427;DHT22;3755;59.316;18.092;2023-05-10T14:26:54;17.10;56.20
7427;DHT22;3755;59.316;18.092;2023-05-10T14:29:22;17.00;56.10
7427;DHT22;3755;59.316;18.092;2023-05-10T14:31:50;17.00;56.20
7427;DHT22;3755;59.316;18.092;2023-05-10T14:34:17;16.90;56.40
7427;DHT22;3755;59.316;18.092;2023-05-10T14:36:44;16.90;55.90
7427;DHT22;3755;59.316;18.092;2023-05-10T14:39:12;17.00;55.70
7427;DHT22;3755;59.316;18.092;2023-05-10T14:41:39;17.00;55.40
7427;DHT22;3755;59.316;18.092;2023-05-10T14:44:10;17.00;55.80
7427;DHT22;3755;59.316;18.092;2023-05-10T14:46:37;16.90;55.30
7427;DHT22;3755;59.316;18.092;2023-05-10T14:49:05;16.90;55.80
7427;DHT22;3755;59.316;18.092;2023-05-10T14:51:32;16.90;56.00
7427;DHT22;3755;59.316;18.092;2023-05-10T14:54:02;16.90;55.90
7427;DHT22;3755;59.316;18.092;2023-05-10T14:56:30;16.80;55.90
7427;DHT22;3755;59.316;18.092;2023-05-10T14:58:57;16.80;55.40
7427;DHT22;3755;59.316;18.092;2023-05-10T15:01:28;16.80;55.70
7427;DHT22;3755;59.316;18.092;2023-05-10T15:03:55;16.80;55.60
7427;DHT22;3755;59.316;18.092;2023-05-10T15:06:30;16.80;55.70
7427;DHT22;3755;59.316;18.092;2023-05-10T15:08:57;16.90;55.90
7427;DHT22;3755;59.316;18.092;2023-05-10T15:11:24;16.90;55.40
7427;DHT22;3755;59.316;18.092;2023-05-10T15:13:52;16.80;55.00
7427;DHT22;3755;59.316;18.092;2023-05-10T15:16:19;16.60;54.60
7427;DHT22;3755;59.316;18.092;2023-05-10T15:18:48;16.70;55.00
7427;DHT22;3755;59.316;18.092;2023-05-10T15:21:16;16.80;55.20
7427;DHT22;3755;59.316;18.092;2023-05-10T15:23:43;16.70;55.00
7427;DHT22;3755;59.316;18.092;2023-05-10T15:26:11;16.70;54.90
7427;DHT22;3755;59.316;18.092;2023-05-10T15:28:38;16.60;55.00
7427;DHT22;3755;59.316;18.092;2023-05-10T15:31:06;16.60;54.90
7427;DHT22;3755;59.316;18.092;2023-05-10T15:33:33;16.60;54.90
7427;DHT22;3755;59.316;18.092;2023-05-10T15:36:02;16.60;54.50
7427;DHT22;3755;59.316;18.092;2023-05-10T15:38:29;16.50;54.60
7427;DHT22;3755;59.316;18.092;2023-05-10T15:40:57;16.40;54.50
7427;DHT22;3755;59.316;18.092;2023-05-10T15:43:25;16.30;54.60
7427;DHT22;3755;59.316;18.092;2023-05-10T15:45:52;16.30;54.80
7427;DHT22;3755;59.316;18.092;2023-05-10T15:48:20;16.30;55.40
7427;DHT22;3755;59.316;18.092;2023-05-10T15:50:47;16.20;55.00
7427;DHT22;3755;59.316;18.092;2023-05-10T15:53:16;16.20;55.10
7427;DHT22;3755;59.316;18.092;2023-05-10T15:55:44;16.20;55.10
7427;DHT22;3755;59.316;18.092;2023-05-10T15:58:11;16.10;54.70
7427;DHT22;3755;59.316;18.092;2023-05-10T16:00:38;16.20;54.90
7427;DHT22;3755;59.316;18.092;2023-05-10T16:03:07;16.30;55.00
7427;DHT22;3755;59.316;18.092;2023-05-10T16:05:34;16.40;55.20